Time;durP1;ratioP1;P1;durP2;ratioP2;P2;SDS_P1;SDS_P2;PMS_P1;PMS_P2;Temp;Humidity;BMP_temperature;BMP_pressure;BME280_temperature;BME280_humidity;BME280_pressure;Samples;Min_cycle;Max_cycle;Signal;HPM_P1;HPM_P2
2021/07/03 00:01:22;;;;;;;29.30;18.58;;;12.40;99.90;;;;;;4994349;28;20133;-89
2021/07/03 00:03:49;;;;;;;20.10;16.08;;;12.50;99.90;;;;;;4994768;28;20507;-89
2021/07/03 00:06:16;;;;;;;20.80;15.55;;;12.50;99.90;;;;;;4994903;28;20054;-90
2021/07/03 00:08:44;;;;;;;24.30;16.70;;;12.50;99.90;;;;;;4994581;28;20057;-89
2021/07/03 00:11:11;;;;;;;27.55;16.85;;;12.40;99.90;;;;;;4994501;28;20133;-89
2021/07/03 00:13:38;;;;;;;24.48;16.00;;;12.50;99.90;;;;;;4994350;28;20141;-89
2021/07/03 00:16:05;;;;;;;18.73;13.93;;;12.50;99.90;;;;;;5001297;28;20050;-89
2021/07/03 00:18:33;;;;;;;22.73;14.60;;;12.50;99.90;;;;;;5001643;28;20085;-89
2021/07/03 00:21:00;;;;;;;20.15;14.95;;;12.50;99.90;;;;;;4997018;28;20051;-89
2021/07/03 00:23:27;;;;;;;28.30;15.52;;;12.50;99.90;;;;;;4994495;28;20455;-89
2021/07/03 00:25:54;;;;;;;17.08;13.63;;;12.50;99.90;;;;;;4994799;28;20479;-90
2021/07/03 00:28:21;;;;;;;22.55;15.25;;;12.50;99.90;;;;;;5011137;28;20066;-89
2021/07/03 00:30:47;;;;;;;21.85;14.55;;;12.50;99.90;;;;;;5016028;28;20046;-90
2021/07/03 00:33:14;;;;;;;16.45;13.85;;;12.60;99.90;;;;;;4994241;28;20060;-89
2021/07/03 00:35:41;;;;;;;20.52;13.98;;;12.50;99.90;;;;;;4994002;28;20546;-90
2021/07/03 00:38:08;;;;;;;28.20;15.32;;;12.60;99.90;;;;;;4993971;28;20054;-90
2021/07/03 00:40:35;;;;;;;19.95;14.13;;;12.60;99.90;;;;;;4994077;28;20062;-90
2021/07/03 00:43:02;;;;;;;22.77;15.30;;;12.60;99.90;;;;;;4993985;28;20061;-89
2021/07/03 00:45:29;;;;;;;23.75;15.95;;;12.60;99.90;;;;;;4993512;28;20410;-88
2021/07/03 00:47:55;;;;;;;19.30;14.82;;;12.60;99.90;;;;;;4993534;28;20056;-90
2021/07/03 00:50:22;;;;;;;16.95;13.70;;;12.60;99.90;;;;;;4993895;28;20042;-89
2021/07/03 00:52:49;;;;;;;24.75;15.55;;;12.60;99.90;;;;;;4994047;28;20058;-89
2021/07/03 00:55:17;;;;;;;19.55;15.45;;;12.60;99.90;;;;;;4993760;28;20042;-89
2021/07/03 00:57:45;;;;;;;21.70;14.13;;;12.50;99.90;;;;;;4993513;28;20411;-90
2021/07/03 01:00:14;;;;;;;16.73;13.68;;;12.60;99.90;;;;;;4993857;28;20571;-90
2021/07/03 01:02:40;;;;;;;19.88;13.85;;;12.60;99.90;;;;;;4994068;28;20050;-90
2021/07/03 01:05:09;;;;;;;23.38;14.23;;;12.60;99.90;;;;;;4993712;28;20054;-89
2021/07/03 01:07:36;;;;;;;18.70;13.35;;;12.60;99.90;;;;;;4993541;28;20072;-90
2021/07/03 01:10:16;;;;;;;17.17;13.73;;;12.50;99.90;;;;;;4993691;28;20046;-89
2021/07/03 01:12:42;;;;;;;14.48;12.98;;;12.50;99.90;;;;;;4993647;28;20491;-89
2021/07/03 01:15:10;;;;;;;20.20;14.43;;;12.50;99.90;;;;;;4993310;28;20046;-90
2021/07/03 01:17:37;;;;;;;18.45;13.98;;;12.50;99.90;;;;;;4992990;28;20130;-90
2021/07/03 01:20:05;;;;;;;17.33;13.80;;;12.50;99.90;;;;;;4993749;28;20137;-90
2021/07/03 01:22:33;;;;;;;14.50;11.40;;;12.40;99.90;;;;;;4993108;28;20122;-89
2021/07/03 01:25:01;;;;;;;14.90;12.73;;;12.40;99.90;;;;;;4993146;28;20558;-88
2021/07/03 01:27:28;;;;;;;14.35;12.07;;;12.40;99.90;;;;;;4992916;28;20054;-90
2021/07/03 01:29:54;;;;;;;20.30;14.00;;;12.40;99.90;;;;;;4993006;28;20146;-89
2021/07/03 01:32:24;;;;;;;14.77;12.65;;;12.30;99.90;;;;;;4993353;28;20058;-90
2021/07/03 01:34:51;;;;;;;16.30;13.43;;;12.20;99.90;;;;;;4993386;28;20060;-90
2021/07/03 01:37:17;;;;;;;21.85;14.75;;;12.20;99.90;;;;;;4992983;28;20051;-90
2021/07/03 01:39:44;;;;;;;16.85;12.70;;;12.20;99.90;;;;;;4993447;28;20055;-89
2021/07/03 01:42:12;;;;;;;14.75;12.43;;;12.20;99.90;;;;;;4993537;28;20064;-89
2021/07/03 01:44:40;;;;;;;16.92;12.73;;;12.20;99.90;;;;;;4993474;28;20133;-89
2021/07/03 01:47:07;;;;;;;18.23;12.50;;;12.20;99.90;;;;;;5003077;28;20077;-90
2021/07/03 01:49:40;;;;;;;16.23;12.43;;;12.30;99.90;;;;;;5017270;28;20043;-89
2021/07/03 01:52:07;;;;;;;16.38;11.93;;;12.20;99.90;;;;;;4996128;28;20152;-89
2021/07/03 01:54:36;;;;;;;14.38;12.82;;;12.20;99.90;;;;;;4992912;28;20050;-89
2021/07/03 01:57:03;;;;;;;13.40;12.00;;;12.20;99.90;;;;;;4992873;28;20491;-89
2021/07/03 01:59:32;;;;;;;16.30;12.65;;;12.10;99.90;;;;;;4996689;28;20591;-90
2021/07/03 02:02:03;;;;;;;14.95;11.88;;;12.10;99.90;;;;;;4996382;28;20118;-89
2021/07/03 02:04:30;;;;;;;14.90;11.90;;;12.00;99.90;;;;;;4996833;28;20050;-90
2021/07/03 02:06:57;;;;;;;15.13;11.93;;;12.10;99.90;;;;;;4996006;28;20110;-88
2021/07/03 02:09:24;;;;;;;14.95;11.95;;;12.10;99.90;;;;;;4996465;28;20050;-90
2021/07/03 02:11:51;;;;;;;13.73;11.98;;;12.10;99.90;;;;;;4996671;28;20065;-90
2021/07/03 02:14:17;;;;;;;13.20;11.77;;;12.10;99.90;;;;;;4996264;28;20046;-90
2021/07/03 02:16:44;;;;;;;13.70;11.65;;;12.10;99.90;;;;;;4996302;28;20046;-90
2021/07/03 02:19:11;;;;;;;14.35;12.18;;;12.10;99.90;;;;;;4996472;28;20073;-89
2021/07/03 02:21:38;;;;;;;14.15;11.90;;;12.10;99.90;;;;;;4996308;28;20505;-91
2021/07/03 02:24:05;;;;;;;15.30;11.77;;;12.10;99.90;;;;;;4996432;28;20238;-90
2021/07/03 02:26:32;;;;;;;15.57;12.30;;;12.10;99.90;;;;;;4996121;28;20129;-90
2021/07/03 02:28:59;;;;;;;12.45;11.07;;;12.00;99.90;;;;;;4996260;28;20049;-90
2021/07/03 02:31:25;;;;;;;14.73;11.85;;;12.00;99.90;;;;;;4995867;28;20065;-90
2021/07/03 02:33:52;;;;;;;15.05;12.15;;;12.00;99.90;;;;;;4996025;28;20065;-91
2021/07/03 02:36:19;;;;;;;14.05;11.32;;;12.00;99.90;;;;;;4996115;28;20126;-91
2021/07/03 02:38:46;;;;;;;18.42;12.00;;;12.10;99.90;;;;;;4995768;28;20525;-90
2021/07/03 02:41:13;;;;;;;12.85;11.48;;;12.00;99.90;;;;;;4995836;28;20052;-90
2021/07/03 02:43:40;;;;;;;12.50;11.18;;;12.00;99.90;;;;;;5002822;28;20085;-91
2021/07/03 02:46:07;;;;;;;13.38;11.20;;;12.00;99.90;;;;;;5002832;28;20096;-90
2021/07/03 02:48:34;;;;;;;14.70;11.50;;;12.00;99.90;;;;;;4999550;28;20133;-90
2021/07/03 02:51:01;;;;;;;13.13;11.07;;;12.00;99.90;;;;;;4995788;28;20074;-89
2021/07/03 02:53:27;;;;;;;15.45;11.75;;;12.00;99.90;;;;;;4995524;28;20060;-91
2021/07/03 02:55:54;;;;;;;14.45;11.82;;;11.90;99.90;;;;;;4995718;28;20061;-90
2021/07/03 02:58:21;;;;;;;12.40;11.18;;;11.90;99.90;;;;;;4995422;28;20142;-91
2021/07/03 03:00:48;;;;;;;12.40;11.02;;;11.90;99.90;;;;;;4995723;28;20574;-90
2021/07/03 03:03:14;;;;;;;13.02;11.73;;;11.90;99.90;;;;;;4995726;28;20046;-90
2021/07/03 03:05:41;;;;;;;15.88;11.85;;;11.90;99.90;;;;;;4996910;28;20053;-89
2021/07/03 03:08:08;;;;;;;13.02;11.50;;;11.90;99.90;;;;;;5019697;28;20050;-90
2021/07/03 03:10:34;;;;;;;15.10;11.68;;;11.90;99.90;;;;;;5008399;28;20054;-91
2021/07/03 03:13:01;;;;;;;15.27;11.70;;;11.90;99.90;;;;;;4995476;28;20054;-90
2021/07/03 03:15:28;;;;;;;13.57;11.77;;;12.00;99.90;;;;;;4995266;28;20566;-91
2021/07/03 03:17:55;;;;;;;13.57;12.13;;;12.00;99.90;;;;;;4995029;28;20498;-90
2021/07/03 03:20:22;;;;;;;13.90;11.75;;;12.00;99.90;;;;;;4995136;28;20512;-91
2021/07/03 03:22:49;;;;;;;16.77;12.95;;;12.00;99.90;;;;;;4995243;28;20046;-91
2021/07/03 03:25:15;;;;;;;17.80;12.68;;;12.00;99.90;;;;;;4995555;28;20052;-91
2021/07/03 03:27:42;;;;;;;13.55;11.63;;;12.10;99.90;;;;;;4995183;28;20061;-90
2021/07/03 03:30:10;;;;;;;15.40;11.32;;;12.10;99.90;;;;;;4994815;28;20046;-89
2021/07/03 03:32:37;;;;;;;12.27;11.00;;;12.10;99.90;;;;;;4994840;28;20089;-89
2021/07/03 03:35:06;;;;;;;12.13;10.63;;;12.10;99.90;;;;;;4994601;28;20058;-90
2021/07/03 03:37:33;;;;;;;12.73;11.43;;;12.10;99.90;;;;;;4994501;28;20051;-89
2021/07/03 03:39:59;;;;;;;12.68;10.93;;;12.10;99.90;;;;;;4994855;28;20081;-90
2021/07/03 03:42:26;;;;;;;11.35;10.25;;;12.10;99.90;;;;;;4994950;28;20101;-90
2021/07/03 03:44:53;;;;;;;12.88;11.55;;;12.10;99.90;;;;;;4995048;28;20073;-90
2021/07/03 03:47:20;;;;;;;14.13;11.43;;;12.10;99.90;;;;;;4994734;28;20054;-90
2021/07/03 03:49:47;;;;;;;18.83;12.02;;;12.10;99.90;;;;;;4994870;28;20046;-91
2021/07/03 03:52:13;;;;;;;11.30;9.90;;;12.20;99.90;;;;;;4994592;28;20137;-91
2021/07/03 03:54:40;;;;;;;12.13;10.93;;;12.10;99.90;;;;;;4994705;28;20052;-90
2021/07/03 03:57:23;;;;;;;13.52;11.32;;;12.20;99.90;;;;;;4994628;28;20058;-90
2021/07/03 03:59:52;;;;;;;12.02;10.52;;;12.20;99.90;;;;;;4995029;28;20054;-90
2021/07/03 04:02:19;;;;;;;12.82;10.10;;;12.20;99.90;;;;;;4994642;28;20077;-90
2021/07/03 04:04:47;;;;;;;12.35;10.85;;;12.30;99.90;;;;;;4994733;28;20487;-91
2021/07/03 04:07:13;;;;;;;11.77;10.55;;;12.30;99.90;;;;;;4994380;28;20145;-90
2021/07/03 04:09:40;;;;;;;13.40;11.30;;;12.30;99.90;;;;;;4994517;28;20054;-90
2021/07/03 04:12:08;;;;;;;12.15;10.65;;;12.20;99.90;;;;;;4994401;28;20499;-90
2021/07/03 04:14:35;;;;;;;12.57;10.40;;;12.30;99.90;;;;;;4994637;28;20130;-89
2021/07/03 04:17:03;;;;;;;11.07;9.88;;;12.30;99.90;;;;;;4994227;28;20081;-90
2021/07/03 04:19:30;;;;;;;11.07;9.98;;;12.30;99.90;;;;;;4994179;28;20145;-89
2021/07/03 04:21:58;;;;;;;10.68;9.60;;;12.30;99.90;;;;;;4994328;28;20142;-89
2021/07/03 04:24:25;;;;;;;12.40;11.10;;;12.40;99.90;;;;;;4994740;28;20060;-89
2021/07/03 04:26:52;;;;;;;11.55;10.40;;;12.40;99.90;;;;;;5011956;28;20042;-90
2021/07/03 04:29:18;;;;;;;11.25;10.10;;;12.40;99.90;;;;;;5008774;28;20439;-89
2021/07/03 04:31:45;;;;;;;11.75;10.43;;;12.40;99.90;;;;;;4994010;28;20060;-90
2021/07/03 04:34:12;;;;;;;11.63;9.98;;;12.50;99.90;;;;;;4993883;28;20054;-88
2021/07/03 04:36:39;;;;;;;11.40;9.95;;;12.50;99.90;;;;;;4994769;28;20053;-90
2021/07/03 04:39:06;;;;;;;11.43;10.32;;;12.50;99.90;;;;;;4993546;28;20054;-89
2021/07/03 04:41:33;;;;;;;10.40;9.40;;;12.50;99.90;;;;;;4995119;28;20046;-89
2021/07/03 04:44:00;;;;;;;15.52;9.88;;;12.50;99.90;;;;;;4993746;28;20080;-91
2021/07/03 04:46:27;;;;;;;10.55;9.55;;;12.60;99.90;;;;;;4993508;28;20125;-89
2021/07/03 04:48:54;;;;;;;20.05;10.43;;;12.70;99.90;;;;;;4993415;28;20104;-90
2021/07/03 04:51:21;;;;;;;12.95;9.80;;;12.70;99.90;;;;;;4994404;28;20418;-90
2021/07/03 04:53:48;;;;;;;10.57;8.98;;;12.80;99.90;;;;;;4994617;28;20056;-89
2021/07/03 04:56:17;;;;;;;14.20;11.13;;;12.90;99.90;;;;;;4993406;28;20050;-89
2021/07/03 04:58:44;;;;;;;15.90;10.10;;;13.10;99.90;;;;;;4993193;28;20120;-90
2021/07/03 05:01:11;;;;;;;10.85;9.05;;;13.20;99.90;;;;;;4993471;28;20090;-90
2021/07/03 05:03:38;;;;;;;13.60;9.10;;;13.30;99.90;;;;;;4994498;28;20169;-90
2021/07/03 05:06:05;;;;;;;8.68;7.90;;;13.40;99.90;;;;;;4993408;28;20507;-90
2021/07/03 05:08:32;;;;;;;10.27;8.25;;;13.50;99.90;;;;;;4993252;28;20093;-90
2021/07/03 05:10:58;;;;;;;15.80;8.70;;;13.60;99.90;;;;;;4993622;28;20057;-90
2021/07/03 05:13:25;;;;;;;11.40;8.45;;;13.60;99.90;;;;;;4994674;28;20062;-90
2021/07/03 05:15:52;;;;;;;9.18;8.35;;;13.70;99.90;;;;;;4994596;28;20050;-90
2021/07/03 05:18:19;;;;;;;9.13;8.23;;;13.70;99.90;;;;;;4998745;28;20082;-90
2021/07/03 05:20:46;;;;;;;10.15;8.98;;;13.80;99.90;;;;;;5000185;28;20088;-91
2021/07/03 05:23:13;;;;;;;8.63;7.47;;;13.80;99.90;;;;;;4994430;28;20056;-90
2021/07/03 05:25:42;;;;;;;7.60;6.93;;;13.80;99.90;;;;;;4993589;28;20054;-91
2021/07/03 05:28:09;;;;;;;7.25;6.57;;;13.90;99.90;;;;;;4993328;28;20057;-90
2021/07/03 05:30:36;;;;;;;7.85;7.15;;;14.00;99.90;;;;;;4993670;28;20114;-89
2021/07/03 05:33:07;;;;;;;7.00;6.40;;;14.20;99.90;;;;;;4995359;28;20050;-90
2021/07/03 05:35:34;;;;;;;8.00;7.30;;;14.40;99.90;;;;;;4996756;28;20486;-90
2021/07/03 05:38:01;;;;;;;8.38;7.57;;;14.60;99.90;;;;;;4997245;28;20141;-90
2021/07/03 05:40:28;;;;;;;7.82;7.13;;;14.80;99.90;;;;;;4997754;28;20054;-90
2021/07/03 05:42:55;;;;;;;12.10;7.28;;;15.00;99.90;;;;;;4997893;28;20058;-91
2021/07/03 05:45:22;;;;;;;7.88;7.18;;;14.90;99.90;;;;;;5007116;28;20066;-91
2021/07/03 05:47:52;;;;;;;8.30;7.47;;;15.00;99.90;;;;;;5020957;28;20058;-90
2021/07/03 05:50:24;;;;;;;6.75;6.05;;;15.20;99.90;;;;;;5001968;28;20190;-90
2021/07/03 05:52:52;;;;;;;10.07;7.47;;;15.30;99.90;;;;;;4996918;28;20129;-90
2021/07/03 05:55:19;;;;;;;7.88;6.85;;;15.40;99.90;;;;;;4997032;28;20054;-90
2021/07/03 05:57:46;;;;;;;9.30;7.35;;;15.90;99.90;;;;;;4996702;28;20058;-90
2021/07/03 06:00:15;;;;;;;18.50;7.88;;;16.30;99.90;;;;;;4997198;28;20058;-90
2021/07/03 06:02:42;;;;;;;14.80;7.40;;;16.60;99.90;;;;;;4996669;28;20066;-90
2021/07/03 06:05:09;;;;;;;19.58;8.90;;;17.30;99.90;;;;;;4996351;28;20066;-90
2021/07/03 06:07:36;;;;;;;15.70;7.20;;;17.80;99.90;;;;;;4996216;28;20053;-90
2021/07/03 06:10:04;;;;;;;12.63;7.68;;;18.30;99.90;;;;;;4996567;28;20061;-90
2021/07/03 06:12:31;;;;;;;10.80;7.35;;;18.40;99.90;;;;;;4996419;28;20072;-89
2021/07/03 06:14:57;;;;;;;11.70;7.25;;;18.70;99.90;;;;;;4996074;28;20052;-90
2021/07/03 06:17:24;;;;;;;27.02;6.75;;;18.60;99.90;;;;;;4996135;28;20525;-90
2021/07/03 06:19:51;;;;;;;27.95;6.93;;;20.40;99.90;;;;;;4996017;28;20054;-91
2021/07/03 06:22:18;;;;;;;21.15;5.70;;;21.40;99.90;;;;;;4996374;28;20060;-90
2021/07/03 06:24:46;;;;;;;31.38;6.72;;;22.10;99.90;;;;;;4996678;28;20057;-90
2021/07/03 06:27:13;;;;;;;18.90;5.85;;;22.70;99.90;;;;;;4996341;28;20144;-91
2021/07/03 06:29:39;;;;;;;21.17;5.63;;;24.00;99.90;;;;;;4996181;28;20061;-91
2021/07/03 06:32:07;;;;;;;20.60;4.75;;;24.80;99.90;;;;;;4995814;28;20054;-91
2021/07/03 06:34:35;;;;;;;16.25;5.18;;;25.80;99.90;;;;;;4995945;28;20137;-91
2021/07/03 06:37:02;;;;;;;16.20;5.20;;;26.00;99.90;;;;;;4995853;28;20070;-90
2021/07/03 06:39:29;;;;;;;19.25;4.57;;;27.70;97.90;;;;;;4995483;28;20137;-90
2021/07/03 06:41:56;;;;;;;8.73;3.72;;;29.00;93.30;;;;;;4996010;28;20046;-91
2021/07/03 06:44:22;;;;;;;4.97;3.38;;;29.80;90.50;;;;;;4994491;28;20062;-91
2021/07/03 06:46:49;;;;;;;8.18;3.33;;;29.70;88.60;;;;;;4997081;28;20046;-91
2021/07/03 06:49:16;;;;;;;9.30;4.05;;;29.40;85.60;;;;;;4995831;28;20513;-92
2021/07/03 06:51:43;;;;;;;10.70;3.75;;;29.90;84.70;;;;;;4996307;28;20106;-92
2021/07/03 06:54:10;;;;;;;5.25;3.55;;;29.90;85.70;;;;;;4995786;28;20103;-91
2021/07/03 06:56:36;;;;;;;7.80;4.05;;;29.80;82.80;;;;;;4995361;28;20077;-92
2021/07/03 06:59:04;;;;;;;5.72;3.75;;;29.20;83.90;;;;;;4995317;28;20046;-91
2021/07/03 07:01:31;;;;;;;4.88;4.03;;;28.70;85.90;;;;;;4995940;28;20060;-91
2021/07/03 07:03:58;;;;;;;8.20;4.07;;;29.20;85.90;;;;;;4998374;28;20118;-92
2021/07/03 07:06:24;;;;;;;5.85;4.03;;;28.90;83.20;;;;;;5015727;28;20082;-92
2021/07/03 07:08:51;;;;;;;7.90;4.20;;;29.40;82.70;;;;;;5003830;28;20145;-94
2021/07/03 07:11:18;;;;;;;4.18;3.63;;;29.30;84.30;;;;;;4995903;28;20133;-90
2021/07/03 07:13:44;;;;;;;4.35;3.92;;;29.90;82.10;;;;;;4995997;28;20080;-90
2021/07/03 07:16:11;;;;;;;4.75;3.35;;;30.40;81.30;;;;;;4995555;28;20137;-90
2021/07/03 07:18:38;;;;;;;6.47;3.72;;;30.80;80.70;;;;;;4995613;28;20061;-91
2021/07/03 07:21:06;;;;;;;4.68;3.70;;;31.80;79.50;;;;;;4995713;28;20057;-92
2021/07/03 07:23:33;;;;;;;4.38;3.20;;;31.60;78.10;;;;;;4995650;28;20062;-89
2021/07/03 07:26:00;;;;;;;4.43;3.55;;;31.70;74.70;;;;;;4995575;28;20050;-88
2021/07/03 07:28:26;;;;;;;2.92;2.75;;;32.60;74.40;;;;;;4995684;28;20093;-90
2021/07/03 07:30:53;;;;;;;2.78;2.58;;;32.70;71.40;;;;;;4995785;28;20134;-91
2021/07/03 07:33:20;;;;;;;2.80;2.70;;;33.10;65.10;;;;;;4995443;28;20133;-88
2021/07/03 07:35:47;;;;;;;3.08;2.80;;;33.40;64.10;;;;;;4996614;28;20149;-92
2021/07/03 07:38:13;;;;;;;2.85;2.67;;;33.10;61.00;;;;;;4996355;28;20133;-90
2021/07/03 07:40:40;;;;;;;3.45;2.95;;;33.00;59.00;;;;;;4997163;28;20149;-94
2021/07/03 07:43:07;;;;;;;3.25;2.42;;;33.30;58.70;;;;;;4998303;28;20057;-90
2021/07/03 07:45:34;;;;;;;3.53;2.83;;;33.30;59.60;;;;;;5013004;28;20057;-91
2021/07/03 07:48:01;;;;;;;2.40;2.22;;;32.80;58.30;;;;;;5011260;28;20057;-90
2021/07/03 07:50:28;;;;;;;2.85;2.55;;;33.60;58.60;;;;;;4999731;28;20056;-91
2021/07/03 07:52:55;;;;;;;3.20;3.00;;;34.00;57.00;;;;;;4996207;28;20050;-90
2021/07/03 07:55:22;;;;;;;4.47;2.80;;;34.80;56.00;;;;;;4996359;28;20132;-92
2021/07/03 07:57:50;;;;;;;2.65;2.45;;;34.30;56.60;;;;;;4996742;28;20495;-90
2021/07/03 08:00:18;;;;;;;4.75;2.90;;;34.50;55.60;;;;;;4995182;28;20140;-91
2021/07/03 08:02:45;;;;;;;2.88;2.67;;;34.70;56.10;;;;;;4996613;28;20137;-91
2021/07/03 08:05:12;;;;;;;3.13;2.92;;;34.50;54.20;;;;;;4995720;28;20054;-90
2021/07/03 08:07:39;;;;;;;21.42;4.47;;;33.60;54.00;;;;;;4995762;28;20070;-90
2021/07/03 08:10:07;;;;;;;8.48;3.22;;;34.30;55.40;;;;;;4995658;28;20136;-91
2021/07/03 08:12:38;;;;;;;10.02;3.20;;;33.60;55.80;;;;;;4996647;28;20046;-91
2021/07/03 08:15:07;;;;;;;2.95;2.75;;;33.90;56.20;;;;;;4994832;28;20065;-92
2021/07/03 08:17:34;;;;;;;3.38;2.85;;;34.10;54.40;;;;;;4996631;28;20073;-94
2021/07/03 08:20:02;;;;;;;2.38;2.28;;;33.40;55.80;;;;;;4999315;28;20419;-91
2021/07/03 08:22:30;;;;;;;2.80;2.60;;;34.00;54.70;;;;;;5000509;28;20068;-90
2021/07/03 08:24:57;;;;;;;2.75;2.55;;;33.40;55.00;;;;;;5013510;28;20074;-91
2021/07/03 08:27:23;;;;;;;4.18;3.10;;;34.10;55.20;;;;;;5010989;28;20101;-91
2021/07/03 08:29:58;;;;;;;2.85;2.60;;;34.40;54.10;;;;;;4997547;28;20054;-92
2021/07/03 08:32:25;;;;;;;4.22;2.78;;;35.20;54.70;;;;;;4996260;28;20070;-90
2021/07/03 08:34:52;;;;;;;3.53;2.42;;;36.00;52.90;;;;;;4995448;28;20400;-88
2021/07/03 08:37:19;;;;;;;2.78;2.58;;;34.60;52.70;;;;;;4996390;28;20050;-91
2021/07/03 08:39:47;;;;;;;2.53;2.42;;;34.20;54.70;;;;;;4996193;28;20050;-91
2021/07/03 08:42:13;;;;;;;2.58;2.40;;;34.60;53.80;;;;;;4994708;28;20133;-89
2021/07/03 08:44:45;;;;;;;2.30;2.20;;;34.70;55.40;;;;;;4995625;28;20570;-92
2021/07/03 08:47:12;;;;;;;3.20;2.47;;;35.50;52.60;;;;;;4995469;28;20590;-90
2021/07/03 08:49:51;;;;;;;2.90;2.70;;;35.70;53.30;;;;;;4995217;28;20082;-90
2021/07/03 08:52:17;;;;;;;2.60;2.40;;;35.90;52.30;;;;;;4996194;28;20072;-91
2021/07/03 08:54:53;;;;;;;3.83;2.47;;;35.80;52.10;;;;;;4994871;28;20146;-93
2021/07/03 08:57:24;;;;;;;3.17;2.30;;;36.80;51.40;;;;;;4997056;28;20047;-93
2021/07/03 08:59:58;;;;;;;2.38;2.17;;;36.20;50.90;;;;;;4995516;28;20129;-89
2021/07/03 09:02:32;;;;;;;2.60;2.40;;;36.30;51.00;;;;;;4994893;28;20081;-88
2021/07/03 09:04:59;;;;;;;2.40;2.30;;;37.30;51.40;;;;;;4995843;28;20135;-89
2021/07/03 09:07:34;;;;;;;2.53;2.13;;;36.50;48.60;;;;;;4996545;28;20055;-90
2021/07/03 09:10:03;;;;;;;2.03;1.92;;;35.80;50.30;;;;;;4999395;28;20054;-92
2021/07/03 09:12:35;;;;;;;2.13;2.00;;;35.60;49.70;;;;;;5000096;28;20129;-89
2021/07/03 09:15:14;;;;;;;3.85;2.38;;;36.60;50.30;;;;;;5003241;28;20140;-93
2021/07/03 09:17:49;;;;;;;2.20;2.10;;;36.90;51.10;;;;;;5001232;28;20066;-95
2021/07/03 09:20:30;;;;;;;3.35;2.15;;;36.80;49.90;;;;;;5000860;28;20054;-90
2021/07/03 09:23:21;;;;;;;2.13;2.00;;;37.50;49.00;;;;;;5002811;28;20140;-90
2021/07/03 09:26:00;;;;;;;2.40;2.20;;;36.90;48.60;;;;;;5002844;28;20410;-93
2021/07/03 09:28:29;;;;;;;3.85;2.00;;;36.40;50.40;;;;;;4999951;28;20057;-90
2021/07/03 09:31:00;;;;;;;3.83;1.80;;;36.20;49.90;;;;;;4999963;28;20126;-90
2021/07/03 09:33:32;;;;;;;3.10;1.77;;;35.70;49.80;;;;;;4999973;28;20614;-92
2021/07/03 09:36:11;;;;;;;2.00;1.90;;;35.30;49.70;;;;;;5000268;28;20050;-94
2021/07/03 09:38:49;;;;;;;2.10;2.00;;;35.30;50.00;;;;;;5001367;28;20054;-92
2021/07/03 09:41:21;;;;;;;3.15;2.30;;;35.80;50.70;;;;;;5001866;28;20491;-92
2021/07/03 09:43:50;;;;;;;2.03;1.92;;;35.20;50.60;;;;;;5003984;28;20104;-89
2021/07/03 09:46:32;;;;;;;2.00;1.90;;;35.90;49.90;;;;;;5008211;28;20046;-92
2021/07/03 09:49:17;;;;;;;2.10;1.92;;;36.10;50.60;;;;;;5001698;28;20066;-91
2021/07/03 09:51:54;;;;;;;3.10;2.03;;;36.40;51.20;;;;;;5001612;28;20058;-92
2021/07/03 09:54:28;;;;;;;4.88;2.10;;;36.30;50.50;;;;;;4999615;28;20469;-89
2021/07/03 09:57:00;;;;;;;;;;;36.60;49.20;;;;;;4999645;28;20137;-95
2021/07/03 09:59:37;;;;;;;2.97;1.87;;;37.40;49.20;;;;;;4999276;28;20428;-89
2021/07/03 10:02:04;;;;;;;3.60;2.15;;;38.40;48.00;;;;;;4998587;28;20410;-91
2021/07/03 10:04:32;;;;;;;6.35;2.10;;;38.20;47.60;;;;;;4998247;28;20450;-89
2021/07/03 10:07:21;;;;;;;2.90;1.83;;;36.10;48.90;;;;;;5000429;28;20050;-88
2021/07/03 10:09:52;;;;;;;2.13;2.00;;;36.10;50.00;;;;;;5004164;28;20542;-89
2021/07/03 10:12:26;;;;;;;1.90;1.80;;;35.80;50.20;;;;;;5009302;28;20066;-89
2021/07/03 10:14:57;;;;;;;6.47;1.90;;;35.40;50.00;;;;;;4983820;28;20141;-94
2021/07/03 10:17:27;;;;;;;1.50;1.40;;;36.10;50.00;;;;;;4998267;28;20046;-87
2021/07/03 10:19:54;;;;;;;1.70;1.60;;;37.00;49.50;;;;;;4996444;28;20136;-86
2021/07/03 10:22:22;;;;;;;3.95;1.45;;;37.40;48.60;;;;;;4997511;28;20488;-88
2021/07/03 10:24:52;;;;;;;2.05;1.70;;;37.00;48.00;;;;;;4997185;28;20050;-88
2021/07/03 10:27:22;;;;;;;1.83;1.42;;;37.20;49.10;;;;;;4996437;28;20050;-89
2021/07/03 10:29:52;;;;;;;1.40;1.40;;;37.90;49.00;;;;;;4996574;28;20062;-86
2021/07/03 10:32:29;;;;;;;1.83;1.60;;;39.00;48.10;;;;;;4996148;28;20047;-85
2021/07/03 10:35:08;;;;;;;2.22;1.60;;;39.10;47.20;;;;;;4996379;28;20058;-92
2021/07/03 10:37:35;;;;;;;4.45;1.50;;;38.20;46.70;;;;;;4997304;28;20092;-89
2021/07/03 10:40:14;;;;;;;2.17;1.40;;;38.80;45.50;;;;;;4996451;28;20466;-89
2021/07/03 10:42:41;;;;;;;1.70;1.60;;;37.80;45.90;;;;;;4996857;28;20053;-87
2021/07/03 10:45:16;;;;;;;5.20;1.40;;;37.00;46.40;;;;;;4997637;28;20059;-93
2021/07/03 10:47:43;;;;;;;3.80;1.50;;;34.90;48.20;;;;;;4996499;28;20050;-88
2021/07/03 10:50:23;;;;;;;1.70;1.67;;;33.30;49.60;;;;;;4996049;28;20062;-87
2021/07/03 10:52:52;;;;;;;1.42;1.33;;;31.90;51.60;;;;;;4996008;28;20129;-89
2021/07/03 10:55:30;;;;;;;2.05;1.90;;;31.00;53.10;;;;;;4996144;28;20069;-89
2021/07/03 10:58:00;;;;;;;2.83;2.60;;;29.80;54.60;;;;;;4996830;28;20064;-87
2021/07/03 11:00:27;;;;;;;2.17;1.48;;;29.10;56.30;;;;;;4996194;28;20275;-88
2021/07/03 11:02:56;;;;;;;2.63;2.42;;;28.90;57.40;;;;;;5001110;28;20145;-88
2021/07/03 11:05:32;;;;;;;2.15;1.88;;;28.90;57.70;;;;;;4999225;28;20137;-88
2021/07/03 11:08:20;;;;;;;1.60;1.60;;;30.30;58.00;;;;;;4996042;28;20411;-89
2021/07/03 11:10:50;;;;;;;1.75;1.73;;;32.20;55.90;;;;;;4996728;28;20141;-88
2021/07/03 11:13:24;;;;;;;1.80;1.70;;;33.00;53.50;;;;;;4995969;28;20054;-89
2021/07/03 11:15:52;;;;;;;2.90;1.35;;;34.90;51.30;;;;;;4996390;28;20517;-90
2021/07/03 11:18:20;;;;;;;2.28;1.75;;;35.50;49.50;;;;;;4996546;28;20050;-88
2021/07/03 11:20:46;;;;;;;1.73;1.63;;;34.80;48.80;;;;;;4996247;28;20054;-91
2021/07/03 11:23:18;;;;;;;3.00;1.58;;;33.60;50.10;;;;;;4997024;28;20125;-88
2021/07/03 11:25:46;;;;;;;2.65;1.60;;;32.60;50.30;;;;;;4997364;28;20057;-89
2021/07/03 11:28:14;;;;;;;1.35;1.25;;;31.90;51.60;;;;;;4997337;28;20053;-89
2021/07/03 11:30:43;;;;;;;3.05;1.60;;;31.30;53.50;;;;;;4995328;28;20046;-87
2021/07/03 11:33:11;;;;;;;1.38;1.35;;;30.60;53.90;;;;;;4995299;28;20058;-87
2021/07/03 11:35:47;;;;;;;1.75;1.67;;;31.10;56.20;;;;;;4996490;28;20062;-91
2021/07/03 11:38:14;;;;;;;2.35;1.70;;;31.40;54.20;;;;;;4995561;28;20050;-88
2021/07/03 11:40:41;;;;;;;1.50;1.40;;;33.00;53.30;;;;;;4998364;28;20051;-93
2021/07/03 11:43:08;;;;;;;1.80;1.60;;;32.90;52.20;;;;;;4995637;28;20066;-91
2021/07/03 11:45:40;;;;;;;2.00;1.80;;;34.40;50.80;;;;;;4994825;28;20054;-88
2021/07/03 11:48:08;;;;;;;1.80;1.70;;;33.80;51.60;;;;;;4996061;28;20050;-89
2021/07/03 11:50:40;;;;;;;3.80;1.65;;;31.90;52.40;;;;;;4996323;28;20056;-89
2021/07/03 11:53:09;;;;;;;2.93;1.70;;;29.50;54.80;;;;;;4996376;28;20133;-88
2021/07/03 11:55:40;;;;;;;2.30;1.67;;;28.80;57.20;;;;;;4995807;28;20380;-89
2021/07/03 11:58:22;;;;;;;1.75;1.65;;;28.70;59.30;;;;;;4995963;28;20128;-88
2021/07/03 12:00:50;;;;;;;2.50;1.90;;;28.50;58.10;;;;;;4995178;28;20046;-89
2021/07/03 12:03:18;;;;;;;2.88;1.60;;;28.40;57.80;;;;;;4995314;28;20133;-89
2021/07/03 12:05:50;;;;;;;3.45;2.22;;;28.00;58.10;;;;;;4994530;28;20054;-91
2021/07/03 12:08:17;;;;;;;2.17;1.95;;;27.70;59.50;;;;;;4995610;28;20047;-91
2021/07/03 12:10:56;;;;;;;1.40;1.40;;;27.50;60.60;;;;;;4995698;28;20145;-90
2021/07/03 12:13:27;;;;;;;1.70;1.63;;;28.00;59.50;;;;;;4995280;28;20559;-89
2021/07/03 12:15:54;;;;;;;2.72;1.80;;;27.40;59.30;;;;;;4995347;28;20065;-87
2021/07/03 12:18:36;;;;;;;1.77;1.67;;;27.10;61.30;;;;;;4995570;28;20054;-87
2021/07/03 12:21:17;;;;;;;1.58;1.58;;;26.90;60.90;;;;;;5002750;28;20048;-88
2021/07/03 12:23:47;;;;;;;1.80;1.70;;;26.70;59.70;;;;;;5010771;28;20080;-89
2021/07/03 12:26:32;;;;;;;1.75;1.65;;;26.80;61.10;;;;;;4996091;28;20046;-89
2021/07/03 12:29:03;;;;;;;1.90;1.80;;;27.00;61.90;;;;;;5005057;28;20101;-90
2021/07/03 12:31:32;;;;;;;4.35;1.95;;;26.70;61.20;;;;;;4999953;28;20054;-91
2021/07/03 12:34:23;;;;;;;2.20;1.65;;;26.60;62.90;;;;;;4997697;28;20052;-91
2021/07/03 12:37:01;;;;;;;1.98;1.88;;;26.90;63.30;;;;;;4994266;28;20050;-90
2021/07/03 12:39:29;;;;;;;2.20;2.10;;;27.20;64.10;;;;;;4994859;28;20054;-93
2021/07/03 12:42:04;;;;;;;1.80;1.70;;;27.60;63.30;;;;;;4995867;28;20137;-94
2021/07/03 12:44:35;;;;;;;2.00;1.80;;;28.00;61.90;;;;;;4994702;28;20065;-89
2021/07/03 12:47:05;;;;;;;1.88;1.77;;;28.50;60.40;;;;;;4994629;28;20551;-88